Time;durP1;ratioP1;P1;durP2;ratioP2;P2;SDS_P1;SDS_P2;PMS_P1;PMS_P2;Temp;Humidity;BMP_temperature;BMP_pressure;BME280_temperature;BME280_humidity;BME280_pressure;Samples;Min_cycle;Max_cycle;Signal;HPM_P1;HPM_P2
2022/09/29 00:03:22;;;;;;;19.10;9.63;;;;;;;8.71;100.00;98943.13;3454043;85;98599;-85
2022/09/29 00:08:27;;;;;;;17.57;10.07;;;;;;;8.70;100.00;98945.11;3449573;85;32554;-85
2022/09/29 00:13:28;;;;;;;17.57;10.10;;;;;;;8.71;100.00;98953.52;3433699;85;98710;-86
2022/09/29 00:18:31;;;;;;;16.73;9.23;;;;;;;8.70;100.00;98953.34;3437748;85;27117;-85
2022/09/29 00:23:34;;;;;;;18.80;11.30;;;;;;;8.73;100.00;98951.76;3436825;84;98752;-87
2022/09/29 00:28:37;;;;;;;20.00;11.03;;;;;;;8.71;100.00;98950.78;3461277;85;34833;-85
2022/09/29 00:33:38;;;;;;;22.52;11.88;;;;;;;8.67;100.00;98956.87;3433124;85;98734;-85
2022/09/29 00:38:43;;;;;;;18.37;11.00;;;;;;;8.66;100.00;98955.89;3436021;84;25782;-85
2022/09/29 00:43:59;;;;;;;20.48;11.85;;;;;;;8.69;100.00;98956.47;3446577;85;98633;-86
2022/09/29 00:49:07;;;;;;;;;;;;;;;8.71;100.00;98960.95;3441489;85;26204;-85
2022/09/29 00:54:09;;;;;;;18.07;10.48;;;;;;;8.73;100.00;98958.62;3434416;85;84364;-86
2022/09/29 00:59:15;;;;;;;21.07;11.88;;;;;;;8.76;100.00;98957.80;3429387;85;35053;-85
2022/09/29 01:04:18;;;;;;;18.42;10.38;;;;;;;8.77;100.00;98958.78;3416499;84;99226;-86
2022/09/29 01:09:32;;;;;;;21.75;11.60;;;;;;;8.77;100.00;98962.89;3428640;86;35079;-88
2022/09/29 01:14:36;;;;;;;20.30;11.10;;;;;;;8.76;100.00;98967.39;3422481;85;98984;-86
2022/09/29 01:20:05;;;;;;;19.17;11.35;;;;;;;8.74;100.00;98967.82;3427004;85;34811;-85
2022/09/29 01:25:24;;;;;;;18.12;11.93;;;;;;;8.74;100.00;98971.14;3410745;86;98365;-85
2022/09/29 01:31:06;;;;;;;20.48;12.00;;;;;;;8.73;100.00;98976.44;3435903;85;34885;-86
2022/09/29 01:36:30;;;;;;;18.12;11.18;;;;;;;8.73;100.00;98987.41;3395956;86;98467;-85
2022/09/29 01:41:49;;;;;;;21.30;12.35;;;;;;;8.76;100.00;98979.74;3402222;84;98989;-85
2022/09/29 01:47:04;;;;;;;18.23;10.75;;;;;;;8.77;100.00;98974.47;3438390;85;34849;-86
2022/09/29 01:52:16;;;;;;;20.60;13.20;;;;;;;8.79;100.00;98978.95;3428369;85;98536;-86
2022/09/29 01:57:40;;;;;;;24.43;13.75;;;;;;;8.80;100.00;98982.67;3422846;85;35755;-86
2022/09/29 02:02:49;;;;;;;23.83;13.40;;;;;;;8.81;100.00;98986.19;3402798;84;98673;-88
2022/09/29 02:07:53;;;;;;;21.85;12.43;;;;;;;8.83;100.00;98996.95;3432632;86;34830;-85
2022/09/29 02:12:56;;;;;;;23.90;15.58;;;;;;;8.83;100.00;98994.20;3420026;85;98507;-86
2022/09/29 02:18:02;;;;;;;29.20;17.75;;;;;;;8.86;100.00;98996.16;3421637;86;35003;-86
2022/09/29 02:23:03;;;;;;;27.90;17.10;;;;;;;8.85;100.00;99001.46;3408693;85;98748;-85
2022/09/29 02:28:06;;;;;;;29.63;19.10;;;;;;;8.83;100.00;99004.41;3410435;86;25824;-85
2022/09/29 02:33:22;;;;;;;29.45;18.12;;;;;;;8.82;100.00;99006.94;3421083;85;98924;-84
2022/09/29 02:38:40;;;;;;;31.60;20.05;;;;;;;8.83;100.00;99016.76;3423615;86;25866;-86
2022/09/29 02:44:06;;;;;;;31.10;18.48;;;;;;;8.82;100.00;99008.31;3411145;84;98879;-85
2022/09/29 02:49:30;;;;;;;36.53;20.97;;;;;;;8.82;100.00;99013.80;3438960;84;26327;-85
2022/09/29 02:55:13;;;;;;;33.48;20.97;;;;;;;8.85;100.00;99020.66;3429386;85;98876;-85
2022/09/29 03:00:16;;;;;;;35.45;20.80;;;;;;;8.84;100.00;99019.69;3441734;85;34747;-86
2022/09/29 03:05:20;;;;;;;32.73;20.00;;;;;;;8.79;100.00;99026.34;3446731;85;98439;-86
2022/09/29 03:10:21;;;;;;;35.92;20.17;;;;;;;8.75;100.00;99033.03;3438669;85;34802;-86
2022/09/29 03:15:22;;;;;;;29.43;17.37;;;;;;;8.74;100.00;99042.45;3445052;85;98793;-85
2022/09/29 03:20:24;;;;;;;31.97;18.23;;;;;;;8.68;100.00;99039.32;3453291;85;26471;-85
2022/09/29 03:25:25;;;;;;;31.82;19.40;;;;;;;8.71;100.00;99047.34;3444407;85;98325;-85
2022/09/29 03:30:26;;;;;;;29.73;19.20;;;;;;;8.74;100.00;99052.05;3444312;84;26471;-86
2022/09/29 03:35:27;;;;;;;33.60;19.23;;;;;;;8.62;100.00;99031.92;3440794;85;98668;-86
2022/09/29 03:40:27;;;;;;;29.03;17.57;;;;;;;8.75;100.00;99061.84;3452514;84;32511;-85
2022/09/29 03:45:28;;;;;;;29.97;17.47;;;;;;;8.76;100.00;99066.94;3432489;84;98755;-85
2022/09/29 03:50:29;;;;;;;29.70;17.53;;;;;;;8.82;100.00;99071.41;3424868;85;32434;-86
2022/09/29 03:55:30;;;;;;;30.82;16.42;;;;;;;8.86;100.00;99066.69;3410971;85;98772;-86
2022/09/29 04:00:31;;;;;;;28.93;17.33;;;;;;;8.85;100.00;99073.36;3427084;85;27398;-86
2022/09/29 04:05:37;;;;;;;28.47;17.47;;;;;;;8.83;100.00;99079.24;3403051;84;98911;-88
2022/09/29 04:10:37;;;;;;;29.40;18.10;;;;;;;8.80;100.00;99082.80;3426690;85;32525;-86
2022/09/29 04:15:38;;;;;;;27.32;16.30;;;;;;;8.77;100.00;99087.69;3425035;84;98766;-86
2022/09/29 04:20:39;;;;;;;27.70;16.57;;;;;;;8.77;100.00;99093.78;3422913;84;25998;-86
2022/09/29 04:25:40;;;;;;;24.73;14.57;;;;;;;8.78;100.00;99091.23;3423259;84;98716;-85
2022/09/29 04:30:40;;;;;;;20.50;13.27;;;;;;;8.80;100.00;99095.72;3436374;86;25951;-86
2022/09/29 04:35:41;;;;;;;18.97;11.63;;;;;;;8.82;100.00;99105.12;3424801;84;98693;-86
2022/09/29 04:40:42;;;;;;;21.10;12.20;;;;;;;8.84;100.00;99109.60;3431957;84;26582;-86
2022/09/29 04:45:43;;;;;;;18.47;10.77;;;;;;;8.87;100.00;99123.91;3415789;85;98680;-86
2022/09/29 04:50:44;;;;;;;19.77;12.17;;;;;;;8.90;100.00;99128.59;3438557;84;26323;-87
2022/09/29 04:55:45;;;;;;;20.27;12.37;;;;;;;8.92;100.00;99132.31;3424444;84;98384;-85
2022/09/29 05:00:46;;;;;;;22.47;12.37;;;;;;;8.90;100.00;99134.08;3417144;84;32934;-86
2022/09/29 05:05:47;;;;;;;24.20;13.60;;;;;;;8.90;100.00;99134.08;3424619;85;99101;-86
2022/09/29 05:10:50;;;;;;;23.10;13.63;;;;;;;8.90;100.00;99147.80;3425485;85;32926;-86
2022/09/29 05:15:57;;;;;;;24.93;14.53;;;;;;;8.86;100.00;99149.79;3428264;85;98573;-86
2022/09/29 05:21:04;;;;;;;24.33;14.53;;;;;;;8.88;100.00;99148.03;3425018;85;26387;-85
2022/09/29 05:26:05;;;;;;;;;;;;;;;8.90;100.00;99147.80;3427895;86;98301;-86
2022/09/29 05:31:08;;;;;;;21.73;13.28;;;;;;;8.89;100.00;99150.34;3422148;86;26431;-86
2022/09/29 05:36:11;;;;;;;22.77;13.00;;;;;;;8.87;100.00;99149.18;3426862;85;98230;-87
2022/09/29 05:41:13;;;;;;;22.20;13.53;;;;;;;8.87;100.00;99142.33;3438832;84;25748;-87
2022/09/29 05:46:15;;;;;;;23.47;13.60;;;;;;;8.86;100.00;99140.19;3422414;85;98230;-87
2022/09/29 05:51:19;;;;;;;23.12;13.90;;;;;;;8.85;100.00;99152.34;3431761;85;98816;-87
2022/09/29 05:56:24;;;;;;;27.60;15.97;;;;;;;8.84;100.00;99145.27;3434896;84;25993;-90
2022/09/29 06:01:26;;;;;;;33.10;18.93;;;;;;;8.85;100.00;99156.45;3428405;85;99025;-90
2022/09/29 06:06:28;;;;;;;34.00;19.87;;;;;;;8.79;100.00;99157.25;3424920;85;26495;-88
2022/09/29 06:11:30;;;;;;;33.10;18.83;;;;;;;8.76;100.00;99166.25;3431627;86;98939;-89
2022/09/29 06:16:33;;;;;;;32.17;18.20;;;;;;;8.79;100.00;99164.11;3430082;84;25840;-88
2022/09/29 06:21:34;;;;;;;32.80;18.13;;;;;;;8.83;100.00;99165.66;3418743;85;99021;-88
2022/09/29 06:26:35;;;;;;;37.27;20.27;;;;;;;8.89;100.00;99165.44;3427797;86;33454;-89
2022/09/29 06:31:36;;;;;;;40.07;21.23;;;;;;;8.97;100.00;99162.89;3420435;85;99068;-89
2022/09/29 06:42:02;;;;;;;31.57;18.67;;;;;;;9.09;100.00;99173.43;3427723;85;99247;-90
2022/09/29 06:47:02;;;;;;;30.70;17.50;;;;;;;9.17;100.00;99170.84;3435445;85;32874;-88
2022/09/29 06:52:03;;;;;;;30.00;17.37;;;;;;;9.31;100.00;99168.63;3426393;84;99192;-89
2022/09/29 06:57:04;;;;;;;32.83;19.93;;;;;;;9.46;100.00;99169.56;3424218;86;33176;-89
2022/09/29 07:02:05;;;;;;;27.13;16.97;;;;;;;9.63;100.00;99178.87;3419005;85;98944;-90
2022/09/29 07:07:06;;;;;;;31.63;18.40;;;;;;;9.76;100.00;99174.52;3423447;85;32943;-90
2022/09/29 07:12:06;;;;;;;28.07;17.90;;;;;;;9.88;100.00;99178.92;3416320;85;98798;-89
2022/09/29 07:17:08;;;;;;;28.03;16.87;;;;;;;9.96;100.00;99187.33;3427349;86;33357;-90
2022/09/29 07:22:08;;;;;;;27.10;16.67;;;;;;;9.98;100.00;99191.82;3417063;85;99054;-90
2022/09/29 07:27:09;;;;;;;29.63;16.97;;;;;;;10.00;99.85;99190.84;3421851;85;33412;-93
2022/09/29 07:32:10;;;;;;;29.07;17.70;;;;;;;10.03;99.11;99201.63;3420962;85;98729;-93
2022/09/29 07:37:11;;;;;;;26.33;15.93;;;;;;;10.00;99.18;99212.04;3424593;85;32323;-94
2022/09/29 07:42:12;;;;;;;26.40;15.40;;;;;;;9.98;98.95;99213.80;3423713;85;98927;-90
2022/09/29 07:47:13;;;;;;;25.13;14.93;;;;;;;9.95;98.96;99220.70;3425349;85;31630;-90
2022/09/29 07:52:14;;;;;;;27.07;14.63;;;;;;;10.00;98.54;99218.91;3413614;85;98736;-91
2022/09/29 07:57:15;;;;;;;26.20;15.10;;;;;;;10.14;98.98;99228.48;3433070;85;31680;-91
2022/09/29 08:02:16;;;;;;;31.10;18.63;;;;;;;10.26;98.48;99221.89;3428497;85;99021;-90
2022/09/29 08:07:17;;;;;;;30.95;18.55;;;;;;;10.36;98.40;99234.03;3430344;86;31668;-91
2022/09/29 08:12:18;;;;;;;31.07;18.20;;;;;;;10.49;98.12;99237.84;3433626;85;98947;-89
2022/09/29 08:17:18;;;;;;;35.90;21.57;;;;;;;10.52;97.63;99237.81;3431179;84;31694;-88
2022/09/29 08:22:19;;;;;;;37.93;22.58;;;;;;;10.58;97.42;99241.70;3416541;84;99032;-89
2022/09/29 08:27:20;;;;;;;33.67;21.00;;;;;;;10.49;96.55;99230.97;3435267;85;26510;-89
2022/09/29 08:32:21;;;;;;;35.40;20.60;;;;;;;10.49;96.55;99230.97;3433477;85;98744;-89
2022/09/29 08:37:22;;;;;;;29.03;18.00;;;;;;;10.67;96.46;99251.66;3431004;85;26268;-92
2022/09/29 08:42:47;;;;;;;25.32;15.93;;;;;;;10.71;96.42;99255.75;3428077;85;98968;-91
2022/09/29 08:47:50;;;;;;;25.40;15.65;;;;;;;10.73;95.49;99259.66;3434078;86;31609;-91
2022/09/29 08:52:56;;;;;;;26.65;17.10;;;;;;;10.77;95.61;99265.12;3425228;84;99309;-93
2022/09/29 08:58:00;;;;;;;27.57;17.00;;;;;;;10.88;94.79;99278.20;3426332;86;44504;-91
2022/09/29 09:03:17;;;;;;;25.62;16.10;;;;;;;10.93;94.88;99281.31;3431004;84;98799;-92
2022/09/29 09:08:52;;;;;;;27.58;17.57;;;;;;;11.06;94.83;99280.23;3437181;85;31594;-91
2022/09/29 09:14:19;;;;;;;33.10;18.35;;;;;;;11.12;93.67;99284.10;3427280;85;98982;-90
2022/09/29 09:19:42;;;;;;;24.70;15.65;;;;;;;11.13;93.70;99288.41;3436919;86;26433;-90
2022/09/29 09:25:09;;;;;;;26.23;16.85;;;;;;;11.31;94.13;99302.78;3418972;84;98804;-91
2022/09/29 09:30:16;;;;;;;21.15;14.23;;;;;;;11.41;92.85;99299.14;3430741;85;31692;-90
2022/09/29 09:35:31;;;;;;;21.12;14.10;;;;;;;11.46;92.49;99312.48;3410436;85;98944;-90
2022/09/29 09:40:42;;;;;;;19.62;12.40;;;;;;;11.59;92.59;99316.30;3429375;85;31580;-88
2022/09/29 09:46:10;;;;;;;19.30;12.75;;;;;;;11.66;91.49;99323.89;3405216;84;99205;-90
2022/09/29 09:51:35;;;;;;;21.57;14.30;;;;;;;11.76;90.93;99329.09;3422286;86;31639;-89
2022/09/29 09:57:05;;;;;;;21.60;13.68;;;;;;;11.96;91.66;99330.05;3444358;85;32262;-90
2022/09/29 10:02:20;;;;;;;18.07;10.50;;;;;;;12.39;89.90;99329.10;3443319;84;98971;-89
2022/09/29 10:07:24;;;;;;;22.87;14.00;;;;;;;12.39;89.90;99329.10;3445776;85;32357;-89
2022/09/29 10:12:25;;;;;;;19.42;12.10;;;;;;;12.76;90.16;99325.41;3428731;85;99436;-91
2022/09/29 10:17:32;;;;;;;19.63;12.13;;;;;;;13.14;90.66;99314.36;3447278;85;25851;-89
2022/09/29 10:22:33;;;;;;;;;;;;;;;13.49;87.73;99320.63;3444636;85;99048;-91
2022/09/29 10:27:42;;;;;;;16.52;10.58;;;;;;;13.82;87.46;99320.39;3443672;84;32907;-91
2022/09/29 10:32:44;;;;;;;20.88;13.90;;;;;;;14.22;87.60;99318.42;3316969;88;99440;-91
2022/09/29 10:37:53;;;;;;;20.52;12.55;;;;;;;14.50;84.95;99328.88;3339707;87;31713;-91
2022/09/29 10:42:56;;;;;;;17.13;11.03;;;;;;;14.71;82.67;99331.93;3316469;88;99163;-91
2022/09/29 10:48:03;;;;;;;15.98;11.25;;;;;;;15.17;83.93;99330.23;3327060;87;31645;-91
2022/09/29 10:53:26;;;;;;;20.45;12.68;;;;;;;15.72;81.87;99327.83;3311252;87;98922;-91
2022/09/29 10:58:43;;;;;;;15.28;10.68;;;;;;;16.32;81.79;99334.62;3308230;88;31833;-92
2022/09/29 11:04:02;;;;;;;14.28;9.53;;;;;;;16.75;81.20;99329.97;3298746;87;99047;-91
2022/09/29 11:09:18;;;;;;;14.73;9.03;;;;;;;17.34;79.28;99339.76;3312502;87;32235;-89
2022/09/29 11:14:40;;;;;;;;;;;;;;;17.76;75.67;99353.64;3302612;87;98535;-90
2022/09/29 11:19:41;;;;;;;11.93;7.83;;;;;;;17.88;69.88;99350.78;3419826;84;31968;-85
2022/09/29 11:25:17;;;;;;;12.10;7.30;;;;;;;18.02;72.76;99365.61;3428960;84;98551;-85
2022/09/29 11:30:25;;;;;;;12.43;7.50;;;;;;;18.30;71.79;99370.14;3441306;84;25895;-85
2022/09/29 11:35:47;;;;;;;9.93;6.40;;;;;;;18.50;71.97;99369.83;3429863;84;98412;-85
2022/09/29 11:41:17;;;;;;;12.10;6.85;;;;;;;18.43;70.25;99373.65;3441895;84;31666;-85
2022/09/29 11:46:24;;;;;;;16.42;7.10;;;;;;;18.33;68.50;99374.84;3447218;84;32302;-86
2022/09/29 11:52:01;;;;;;;13.68;6.40;;;;;;;17.95;68.23;99372.03;3440028;84;98538;-85
2022/09/29 11:57:13;;;;;;;10.05;7.00;;;;;;;17.77;69.02;99374.67;3436592;84;25940;-87
2022/09/29 12:02:41;;;;;;;10.98;7.25;;;;;;;17.76;69.57;99378.69;3434105;84;98815;-84
2022/09/29 12:08:10;;;;;;;12.03;7.87;;;;;;;17.59;68.00;99383.62;3444813;83;31627;-86
2022/09/29 12:13:49;;;;;;;15.03;8.10;;;;;;;17.28;67.36;99386.05;3436876;84;98825;-85
2022/09/29 12:19:15;;;;;;;11.70;7.65;;;;;;;17.10;67.81;99380.26;3429044;84;31597;-86
2022/09/29 12:24:33;;;;;;;14.53;9.60;;;;;;;16.97;68.29;99383.66;3425479;84;98629;-84
2022/09/29 12:29:54;;;;;;;14.40;9.23;;;;;;;16.78;67.08;99386.06;3419029;85;32236;-84
2022/09/29 12:35:06;;;;;;;13.53;9.17;;;;;;;16.44;67.60;99393.61;3415610;85;98771;-85
2022/09/29 12:40:21;;;;;;;12.90;8.58;;;;;;;16.34;67.29;99401.59;3417029;85;32292;-85
2022/09/29 12:45:36;;;;;;;11.57;7.50;;;;;;;16.16;66.29;99408.86;3415626;85;98410;-86
2022/09/29 12:50:45;;;;;;;12.53;7.72;;;;;;;15.91;67.57;99405.38;3422192;85;31741;-85
2022/09/29 12:56:07;;;;;;;12.30;8.40;;;;;;;15.81;66.02;99413.98;3404504;85;98403;-84
2022/09/29 13:01:33;;;;;;;12.78;9.23;;;;;;;15.55;66.83;99409.50;3420751;85;31609;-85
2022/09/29 13:07:21;;;;;;;10.37;6.53;;;;;;;15.55;68.54;99406.73;3420637;85;26051;-86
2022/09/29 13:12:57;;;;;;;12.45;8.63;;;;;;;15.63;69.55;99407.50;3416253;85;98799;-85
2022/09/29 13:18:20;;;;;;;12.93;8.50;;;;;;;15.60;69.01;99412.52;3427515;85;31644;-86
2022/09/29 13:24:01;;;;;;;11.88;7.50;;;;;;;15.47;67.77;99410.91;3410366;85;98561;-85
2022/09/29 13:29:13;;;;;;;11.95;7.53;;;;;;;15.44;68.53;99409.78;3425444;85;32197;-86
2022/09/29 13:34:30;;;;;;;14.30;8.28;;;;;;;15.44;69.37;99416.72;3423591;85;98577;-86
2022/09/29 13:39:33;;;;;;;11.28;7.17;;;;;;;15.39;68.35;99406.14;3418750;85;31706;-85
2022/09/29 13:44:33;;;;;;;12.53;8.18;;;;;;;15.26;69.60;99413.55;3419613;85;98444;-86
2022/09/29 13:49:34;;;;;;;13.13;8.43;;;;;;;15.21;69.90;99412.67;3420322;85;31010;-85
2022/09/29 13:54:41;;;;;;;12.20;7.90;;;;;;;15.23;69.90;99408.09;3417415;85;98954;-86
2022/09/29 13:59:48;;;;;;;11.88;7.90;;;;;;;15.28;69.61;99411.73;3423540;84;31775;-85
2022/09/29 14:04:53;;;;;;;11.40;6.85;;;;;;;15.33;69.70;99414.02;3400242;85;98446;-85
2022/09/29 14:09:55;;;;;;;12.45;8.00;;;;;;;15.38;70.52;99421.81;3427280;84;26390;-85
2022/09/29 14:14:58;;;;;;;10.60;6.60;;;;;;;15.37;69.80;99427.20;3414407;84;98355;-86
2022/09/29 14:20:19;;;;;;;14.33;8.28;;;;;;;15.38;70.29;99433.67;3421414;85;31602;-85
2022/09/29 14:25:43;;;;;;;11.75;7.05;;;;;;;15.26;68.70;99434.33;3415238;85;98373;-85
2022/09/29 14:30:53;;;;;;;12.07;7.08;;;;;;;15.32;70.13;99440.16;3423357;85;32158;-85
2022/09/29 14:36:11;;;;;;;12.37;8.33;;;;;;;15.41;70.89;99438.95;3419459;85;98394;-83
2022/09/29 14:41:33;;;;;;;13.70;8.95;;;;;;;15.46;70.03;99446.76;3417822;85;31672;-85
2022/09/29 14:52:30;;;;;;;;;;;;;;;15.33;69.30;99451.45;3423475;84;98690;-85
2022/09/29 14:58:13;;;;;;;10.58;6.65;;;;;;;15.28;69.47;99458.27;3420687;85;31696;-85
2022/09/29 15:03:27;;;;;;;10.53;6.45;;;;;;;15.23;70.71;99460.75;3419725;85;98530;-85
2022/09/29 15:08:38;;;;;;;14.98;7.75;;;;;;;15.18;71.41;99456.52;3419519;85;31672;-85
2022/09/29 15:13:35;;;;;;;15.05;9.03;;;;;;;15.13;71.96;99468.11;3423072;85;98448;-85
2022/09/29 15:19:09;;;;;;;12.70;7.90;;;;;;;15.06;71.32;99474.41;3426504;84;25943;-85
2022/09/29 15:24:33;;;;;;;12.37;7.12;;;;;;;15.00;71.95;99474.74;3435027;84;99103;-85
2022/09/29 15:29:34;;;;;;;13.83;8.40;;;;;;;14.95;72.24;99479.41;3440606;84;31734;-85
2022/09/29 15:34:38;;;;;;;13.77;8.20;;;;;;;14.84;71.28;99492.70;3438471;84;98942;-85
2022/09/29 15:39:51;;;;;;;16.00;9.05;;;;;;;14.68;72.82;99489.87;3451504;83;31738;-85
2022/09/29 15:45:01;;;;;;;14.98;8.28;;;;;;;14.60;71.22;99501.69;3448946;84;98449;-86
2022/09/29 15:50:19;;;;;;;11.35;7.47;;;;;;;14.42;69.97;99506.01;3443234;84;32322;-85
2022/09/29 15:55:23;;;;;;;10.08;6.10;;;;;;;14.29;69.11;99511.38;3437813;84;98424;-85
2022/09/29 16:00:39;;;;;;;9.38;4.70;;;;;;;14.18;70.89;99512.77;3446235;84;31276;-85
2022/09/29 16:05:46;;;;;;;7.90;4.13;;;;;;;14.09;72.06;99516.08;3429455;84;98183;-85
2022/09/29 16:10:55;;;;;;;8.55;4.40;;;;;;;13.96;72.76;99520.64;3439287;84;31833;-85
2022/09/29 16:16:03;;;;;;;8.20;4.45;;;;;;;13.87;73.30;99532.86;3431962;84;98577;-85
2022/09/29 16:21:17;;;;;;;9.05;4.95;;;;;;;13.77;73.90;99530.25;3429852;84;31768;-85
2022/09/29 16:26:32;;;;;;;14.95;8.85;;;;;;;13.53;74.94;99529.44;3421957;85;31618;-85
2022/09/29 16:31:38;;;;;;;14.25;7.17;;;;;;;13.53;74.94;99529.44;3404371;85;98631;-85
2022/09/29 16:36:38;;;;;;;10.08;6.22;;;;;;;13.41;75.12;99534.16;3426257;85;26435;-85
2022/09/29 16:41:40;;;;;;;11.63;6.53;;;;;;;13.30;75.46;99536.30;3422419;85;98610;-85
2022/09/29 16:46:46;;;;;;;14.60;8.93;;;;;;;13.18;75.86;99540.22;3432648;85;25931;-85
2022/09/29 16:51:48;;;;;;;;;;;;;;;13.07;76.26;99553.39;3411042;85;98944;-86
2022/09/29 16:57:11;;;;;;;15.28;10.30;;;;;;;12.94;77.03;99549.59;3424702;84;31631;-87
2022/09/29 17:02:13;;;;;;;14.17;8.90;;;;;;;12.81;76.89;99547.20;3340034;85;99309;-87
2022/09/29 17:07:17;;;;;;;14.85;9.30;;;;;;;12.59;77.79;99561.83;3421518;84;33117;-87
2022/09/29 17:12:18;;;;;;;15.10;8.95;;;;;;;12.59;77.79;99561.83;3416394;85;99083;-88
2022/09/29 17:17:26;;;;;;;18.23;10.23;;;;;;;12.43;78.06;99569.88;3424769;84;25972;-85
2022/09/29 17:22:33;;;;;;;17.70;10.72;;;;;;;12.32;78.69;99585.75;3441221;84;98620;-85
2022/09/29 17:28:22;;;;;;;23.47;13.00;;;;;;;12.17;79.22;99593.99;3445544;84;30238;-85
2022/09/29 17:32:43;;;;;;;26.75;16.35;;;;;;;12.06;79.78;99595.27;3419747;84;98893;-85
2022/09/29 17:37:41;;;;;;;42.10;23.67;;;;;;;11.94;80.12;99602.04;3445536;84;30270;-85
2022/09/29 17:42:45;;;;;;;48.55;29.55;;;;;;;11.85;80.29;99612.77;3437881;84;98812;-85
2022/09/29 17:47:47;;;;;;;46.28;30.02;;;;;;;11.77;80.87;99612.61;3446116;84;32337;-85
2022/09/29 17:52:48;;;;;;;60.35;41.45;;;;;;;11.68;81.29;99610.12;3439772;84;98749;-85
2022/09/29 17:57:52;;;;;;;50.47;31.87;;;;;;;11.60;81.81;99619.02;3446898;84;25925;-85
2022/09/29 18:02:57;;;;;;;49.10;33.80;;;;;;;11.53;81.72;99617.66;3437069;84;98894;-86
2022/09/29 18:07:59;;;;;;;59.53;37.67;;;;;;;11.48;82.33;99622.22;3442033;84;26682;-85
2022/09/29 18:13:00;;;;;;;44.47;26.63;;;;;;;11.40;82.70;99624.80;3432001;84;98870;-86
2022/09/29 18:18:04;;;;;;;40.97;26.93;;;;;;;11.35;83.04;99633.48;3438637;83;25836;-86
2022/09/29 18:23:05;;;;;;;37.63;24.72;;;;;;;11.26;83.15;99624.89;3443608;83;99049;-86
2022/09/29 18:28:11;;;;;;;38.53;25.40;;;;;;;11.20;83.61;99635.33;3418395;85;26535;-87
2022/09/29 18:33:15;;;;;;;44.38;26.85;;;;;;;11.13;84.02;99637.52;3421497;85;98911;-86
2022/09/29 18:38:16;;;;;;;47.47;29.93;;;;;;;11.05;84.33;99642.87;3425526;85;26042;-86
2022/09/29 18:43:17;;;;;;;94.57;47.70;;;;;;;10.97;84.69;99644.67;3422397;85;99028;-86
2022/09/29 18:48:18;;;;;;;77.27;44.27;;;;;;;10.93;85.09;99661.78;3403612;85;26266;-86
2022/09/29 18:53:21;;;;;;;79.57;47.40;;;;;;;10.86;84.90;99660.42;3408082;85;98730;-86
2022/09/29 18:58:22;;;;;;;78.57;45.87;;;;;;;10.81;85.54;99658.08;3424677;85;26581;-86
2022/09/29 19:03:26;;;;;;;58.53;37.23;;;;;;;10.79;85.69;99672.84;3421771;84;98699;-86
2022/09/29 19:08:31;;;;;;;45.95;28.05;;;;;;;10.74;85.60;99679.52;3426752;85;32867;-86
2022/09/29 19:13:30;;;;;;;45.30;29.82;;;;;;;10.70;85.87;99680.13;3412742;83;99318;-86
2022/09/29 19:18:30;;;;;;;57.13;35.10;;;;;;;10.65;86.28;99677.77;3427743;85;25956;-86
2022/09/29 19:23:31;;;;;;;61.57;38.87;;;;;;;10.61;86.70;99688.57;3488608;81;98631;-86
2022/09/29 19:28:32;;;;;;;56.73;36.67;;;;;;;10.58;86.83;99694.27;3469071;83;34912;-86
2022/09/29 19:33:33;;;;;;;62.53;37.27;;;;;;;10.52;87.16;99695.84;3493276;83;98867;-86
2022/09/29 19:38:37;;;;;;;102.30;61.73;;;;;;;10.47;87.15;99696.84;3489859;83;34819;-86
2022/09/29 19:43:38;;;;;;;123.27;78.33;;;;;;;10.41;87.37;99693.69;3503696;83;99171;-86
2022/09/29 19:48:42;;;;;;;89.37;57.90;;;;;;;10.34;87.57;99694.28;3503318;83;30087;-87
2022/09/29 19:53:43;;;;;;;75.70;48.00;;;;;;;10.26;87.81;99706.47;3497241;83;98664;-87
2022/09/29 19:58:44;;;;;;;52.40;33.87;;;;;;;10.17;88.15;99712.35;3500186;83;25826;-87
2022/09/29 20:03:46;;;;;;;53.50;34.77;;;;;;;10.10;88.33;99707.43;3432804;84;98558;-88
2022/09/29 20:08:47;;;;;;;105.45;72.10;;;;;;;10.01;88.45;99716.60;3437361;84;31186;-87
2022/09/29 20:13:48;;;;;;;61.03;41.43;;;;;;;9.92;88.73;99724.45;3433669;84;99009;-88
2022/09/29 20:18:49;;;;;;;60.97;39.60;;;;;;;9.82;88.98;99731.48;3441778;84;36223;-87
2022/09/29 20:23:50;;;;;;;45.00;31.10;;;;;;;9.73;89.12;99733.03;3437386;84;98434;-87
2022/09/29 20:28:53;;;;;;;47.23;35.70;;;;;;;9.62;89.17;99737.70;3442945;84;31124;-87
2022/09/29 20:33:53;;;;;;;48.07;35.87;;;;;;;9.53;89.82;99738.06;3430231;84;98254;-87
2022/09/29 20:38:54;;;;;;;45.53;32.13;;;;;;;9.47;89.77;99729.99;3428520;84;34997;-87
2022/09/29 20:43:57;;;;;;;41.00;27.57;;;;;;;9.34;89.94;99731.52;3442847;84;98362;-87
2022/09/29 20:49:01;;;;;;;43.67;30.23;;;;;;;9.25;90.00;99733.02;3444569;84;25840;-87
2022/09/29 20:54:01;;;;;;;34.88;20.82;;;;;;;9.16;90.05;99738.85;3438545;84;98387;-87
2022/09/29 20:59:02;;;;;;;64.33;41.83;;;;;;;9.10;90.41;99749.22;3450238;84;26778;-88
2022/09/29 21:04:08;;;;;;;62.60;41.10;;;;;;;9.01;90.70;99746.02;3437679;84;98832;-87
2022/09/29 21:09:13;;;;;;;47.75;29.10;;;;;;;8.94;90.97;99753.61;3421119;84;26245;-88
2022/09/29 21:14:18;;;;;;;38.80;22.45;;;;;;;8.86;90.85;99756.13;3432636;84;98605;-89
2022/09/29 21:19:24;;;;;;;38.07;20.33;;;;;;;8.78;90.99;99755.85;3445530;84;29808;-90
2022/09/29 21:24:24;;;;;;;33.00;21.65;;;;;;;8.71;91.02;99762.66;3435640;84;98602;-87
2022/09/29 21:29:25;;;;;;;35.67;22.77;;;;;;;8.63;91.31;99784.36;3435626;84;36325;-86
2022/09/29 21:34:26;;;;;;;33.43;21.97;;;;;;;8.56;91.70;99781.53;3436746;84;98396;-85
2022/09/29 21:39:26;;;;;;;29.00;18.10;;;;;;;8.50;91.37;99793.25;3435082;84;36171;-85
2022/09/29 21:44:27;;;;;;;38.30;21.43;;;;;;;8.42;91.67;99784.17;3501063;83;98328;-85
2022/09/29 21:49:28;;;;;;;61.60;35.07;;;;;;;8.34;91.58;99790.73;3506021;83;36301;-86
2022/09/29 21:54:29;;;;;;;51.07;28.07;;;;;;;8.28;92.08;99798.33;3498727;82;98985;-83
2022/09/29 21:59:29;;;;;;;53.45;27.17;;;;;;;8.24;92.02;99803.75;3502635;83;35468;-83
2022/09/29 22:04:30;;;;;;;54.37;27.07;;;;;;;8.19;92.45;99801.31;3489776;83;98670;-83
2022/09/29 22:09:31;;;;;;;48.63;27.57;;;;;;;8.17;92.66;99805.59;3489654;83;26241;-83
2022/09/29 22:14:32;;;;;;;44.20;26.80;;;;;;;8.01;92.35;99792.73;3482036;82;98355;-83
2022/09/29 22:19:33;;;;;;;41.03;24.97;;;;;;;8.03;92.66;99798.61;3501870;83;32555;-83
2022/09/29 22:24:34;;;;;;;37.73;22.00;;;;;;;8.00;92.74;99799.34;3463378;82;98638;-84
2022/09/29 22:29:35;;;;;;;46.63;26.53;;;;;;;7.95;92.70;99807.33;3466502;82;32518;-83
2022/09/29 22:34:35;;;;;;;45.03;28.73;;;;;;;7.91;93.01;99817.45;3469107;83;98293;-86
2022/09/29 22:39:36;;;;;;;48.10;29.92;;;;;;;7.85;92.76;99828.53;3475406;83;32467;-86
2022/09/29 22:44:37;;;;;;;43.47;26.33;;;;;;;7.78;92.88;99831.19;3475264;83;98186;-86
2022/09/29 22:49:37;;;;;;;44.73;27.30;;;;;;;7.76;93.31;99852.70;3462753;83;26141;-84
2022/09/29 22:54:38;;;;;;;58.45;31.65;;;;;;;7.73;93.32;99841.67;3475962;82;98210;-83
2022/09/29 22:59:39;;;;;;;51.97;29.33;;;;;;;7.69;93.32;99854.55;3488776;83;26464;-83
2022/09/29 23:04:40;;;;;;;48.83;29.67;;;;;;;7.68;93.65;99863.94;3482477;83;98493;-83
2022/09/29 23:09:41;;;;;;;58.40;32.10;;;;;;;7.67;93.92;99863.13;3482755;83;26602;-83
2022/09/29 23:14:41;;;;;;;68.97;35.80;;;;;;;7.70;93.65;99865.11;3477677;82;98314;-83
2022/09/29 23:19:42;;;;;;;62.38;38.05;;;;;;;7.70;93.98;99870.59;3486133;83;26347;-83
2022/09/29 23:24:43;;;;;;;63.13;37.37;;;;;;;7.72;94.10;99879.25;3454386;83;98601;-83
2022/09/29 23:29:44;;;;;;;85.60;47.33;;;;;;;7.77;94.38;99876.19;3463528;83;33172;-83
2022/09/29 23:34:44;;;;;;;76.20;44.17;;;;;;;7.82;94.56;99873.13;3469153;83;98339;-83
2022/09/29 23:39:45;;;;;;;141.77;74.43;;;;;;;7.85;94.57;99872.37;3457628;83;33242;-83
2022/09/29 23:44:46;;;;;;;127.37;65.13;;;;;;;7.90;94.63;99858.94;3478764;83;98830;-83
2022/09/29 23:49:47;;;;;;;66.57;38.10;;;;;;;7.92;94.49;99856.01;3473712;83;33196;-83
2022/09/29 23:54:47;;;;;;;53.28;32.90;;;;;;;7.94;94.51;99863.29;3478210;83;98349;-83